Time;durP1;ratioP1;P1;durP2;ratioP2;P2;SDS_P1;SDS_P2;PMS_P1;PMS_P2;Temp;Humidity;BMP_temperature;BMP_pressure;BME280_temperature;BME280_humidity;BME280_pressure;Samples;Min_cycle;Max_cycle;Signal;HPM_P1;HPM_P2
2023/07/27 00:02:00;;;;;;;7.60;1.88;;;18.30;92.20;;;;;;5098748;27;45243;-62
2023/07/27 00:04:27;;;;;;;7.20;2.00;;;18.30;92.00;;;;;;5105563;27;45255;-61
2023/07/27 00:06:53;;;;;;;4.50;2.08;;;18.20;92.00;;;;;;5104220;27;45150;-61
2023/07/27 00:09:21;;;;;;;3.95;2.03;;;18.20;92.60;;;;;;5105680;27;45248;-62
2023/07/27 00:11:49;;;;;;;6.18;2.35;;;18.20;93.50;;;;;;5103716;27;45122;-61
2023/07/27 00:14:16;;;;;;;6.45;1.90;;;18.10;93.30;;;;;;5112477;27;45287;-61
2023/07/27 00:16:42;;;;;;;5.85;2.17;;;18.10;93.40;;;;;;5104093;27;45315;-61
2023/07/27 00:19:09;;;;;;;5.97;2.22;;;18.10;93.70;;;;;;5104546;27;45182;-62
2023/07/27 00:21:36;;;;;;;4.57;2.13;;;18.10;93.60;;;;;;5101572;27;45122;-61
2023/07/27 00:24:03;;;;;;;5.05;2.13;;;18.10;93.90;;;;;;5103350;27;46047;-61
2023/07/27 00:26:31;;;;;;;6.90;2.20;;;18.10;93.40;;;;;;5103871;27;45450;-61
2023/07/27 00:28:58;;;;;;;5.28;2.20;;;18.10;92.40;;;;;;5109547;27;45159;-61
2023/07/27 00:31:25;;;;;;;2.97;1.80;;;18.20;92.20;;;;;;5090393;27;45426;-61
2023/07/27 00:33:51;;;;;;;5.57;2.10;;;18.20;92.10;;;;;;5095123;27;46926;-61
2023/07/27 00:36:18;;;;;;;3.97;1.85;;;18.20;91.90;;;;;;5096550;27;46303;-61
2023/07/27 00:38:45;;;;;;;3.28;1.80;;;18.20;92.20;;;;;;5104064;27;45268;-61
2023/07/27 00:41:11;;;;;;;2.72;1.80;;;18.20;91.80;;;;;;5103107;27;45210;-61
2023/07/27 00:43:40;;;;;;;5.70;1.60;;;18.10;92.30;;;;;;5104214;27;46315;-61
2023/07/27 00:46:07;;;;;;;4.55;2.33;;;18.10;92.30;;;;;;5103426;27;45154;-61
2023/07/27 00:48:34;;;;;;;6.68;2.30;;;18.10;92.40;;;;;;5100495;27;45107;-62
2023/07/27 00:51:02;;;;;;;3.83;1.73;;;18.00;92.70;;;;;;5100688;27;45511;-61
2023/07/27 00:53:29;;;;;;;4.10;1.95;;;18.00;93.20;;;;;;5107542;27;46251;-61
2023/07/27 00:55:56;;;;;;;4.13;2.03;;;17.90;93.10;;;;;;5101915;27;45245;-60
2023/07/27 00:58:23;;;;;;;4.78;1.80;;;17.90;93.00;;;;;;5103624;27;45256;-61
2023/07/27 01:00:51;;;;;;;5.97;2.05;;;17.90;93.00;;;;;;5101855;27;45528;-62
2023/07/27 01:03:18;;;;;;;5.10;1.92;;;17.90;93.10;;;;;;5105783;27;47991;-61
2023/07/27 01:05:46;;;;;;;3.88;1.80;;;18.00;92.70;;;;;;5102746;27;45340;-62
2023/07/27 01:08:13;;;;;;;6.38;1.75;;;18.10;92.60;;;;;;5101060;27;45318;-61
2023/07/27 01:11:03;;;;;;;5.50;1.98;;;18.00;93.40;;;;;;5102948;27;45545;-61
2023/07/27 01:13:37;;;;;;;7.85;2.13;;;18.00;93.00;;;;;;5101535;27;48050;-62
2023/07/27 01:16:09;;;;;;;3.92;2.10;;;18.00;93.40;;;;;;5104204;27;45328;-61
2023/07/27 01:18:43;;;;;;;4.47;1.70;;;17.90;93.40;;;;;;5104091;27;45176;-61
2023/07/27 01:21:16;;;;;;;5.45;2.08;;;18.00;92.80;;;;;;5110591;27;45360;-61
2023/07/27 01:24:18;;;;;;;4.28;1.83;;;17.90;92.90;;;;;;5111784;27;45424;-61
2023/07/27 01:27:08;;;;;;;6.75;1.98;;;17.90;93.00;;;;;;5103254;27;45279;-61
2023/07/27 01:29:54;;;;;;;2.65;1.55;;;17.90;93.20;;;;;;5103972;27;45247;-61
2023/07/27 01:32:25;;;;;;;8.30;2.17;;;17.80;93.30;;;;;;5104657;27;45333;-62
2023/07/27 01:34:57;;;;;;;5.40;2.38;;;17.80;93.30;;;;;;5109708;27;45223;-61
2023/07/27 01:37:27;;;;;;;5.28;1.92;;;17.90;92.90;;;;;;5106716;27;45222;-61
2023/07/27 01:39:56;;;;;;;4.80;2.03;;;17.90;92.40;;;;;;5106178;27;45259;-61
2023/07/27 01:42:24;;;;;;;4.15;1.70;;;18.00;92.60;;;;;;5123269;27;45147;-61
2023/07/27 01:44:52;;;;;;;2.35;1.50;;;17.90;92.70;;;;;;5099963;27;46187;-61
2023/07/27 01:47:20;;;;;;;7.65;2.13;;;17.90;92.60;;;;;;5102471;27;45178;-61
2023/07/27 01:49:50;;;;;;;3.92;1.95;;;17.90;92.90;;;;;;5096212;27;45217;-61
2023/07/27 01:52:19;;;;;;;3.25;1.83;;;17.90;93.00;;;;;;5101450;27;45166;-61
2023/07/27 01:54:48;;;;;;;3.30;1.80;;;17.90;93.40;;;;;;5103087;27;47148;-61
2023/07/27 01:57:16;;;;;;;5.28;1.95;;;17.90;93.40;;;;;;5121320;27;45206;-61
2023/07/27 01:59:44;;;;;;;3.63;1.80;;;17.90;93.70;;;;;;5110426;27;45285;-62
2023/07/27 02:02:13;;;;;;;5.70;2.05;;;17.80;94.30;;;;;;5109484;27;45126;-62
2023/07/27 02:04:40;;;;;;;6.10;2.10;;;17.80;94.20;;;;;;5110399;27;46442;-61
2023/07/27 02:07:08;;;;;;;3.75;1.75;;;17.80;94.80;;;;;;5109448;27;45303;-61
2023/07/27 02:09:35;;;;;;;3.83;1.90;;;17.80;95.70;;;;;;5109725;27;45329;-61
2023/07/27 02:12:06;;;;;;;7.95;2.30;;;17.80;94.90;;;;;;5112353;27;45384;-61
2023/07/27 02:14:50;;;;;;;2.45;1.80;;;17.80;96.30;;;;;;5109418;27;46952;-62
2023/07/27 02:17:24;;;;;;;3.67;2.00;;;17.70;96.80;;;;;;5117424;27;45238;-61
2023/07/27 02:19:57;;;;;;;6.53;2.33;;;17.80;98.50;;;;;;5102059;27;45138;-61
2023/07/27 02:22:26;;;;;;;4.00;2.00;;;17.70;97.50;;;;;;5109102;27;45279;-61
2023/07/27 02:24:53;;;;;;;5.57;2.47;;;17.80;96.80;;;;;;5109544;27;47305;-61
2023/07/27 02:27:19;;;;;;;4.95;1.80;;;17.70;99.40;;;;;;5108282;27;45403;-61
2023/07/27 02:29:47;;;;;;;5.03;1.83;;;17.60;99.90;;;;;;5107009;27;45218;-61
2023/07/27 02:32:13;;;;;;;5.55;1.95;;;17.50;99.90;;;;;;5115837;27;45215;-62
2023/07/27 02:34:40;;;;;;;5.72;2.17;;;17.30;99.90;;;;;;5109195;27;46336;-61
2023/07/27 02:37:07;;;;;;;6.15;2.05;;;17.30;99.90;;;;;;5107687;27;45134;-61
2023/07/27 02:39:35;;;;;;;4.07;2.00;;;17.20;99.90;;;;;;5108885;27;45128;-61
2023/07/27 02:42:01;;;;;;;6.55;2.15;;;16.90;99.90;;;;;;5109223;27;45352;-61
2023/07/27 02:44:28;;;;;;;6.10;2.30;;;17.00;99.90;;;;;;5109138;27;46107;-61
2023/07/27 02:46:55;;;;;;;4.70;2.10;;;16.90;99.90;;;;;;5118174;27;45186;-62
2023/07/27 02:49:22;;;;;;;6.93;2.72;;;16.90;99.90;;;;;;5109842;27;45177;-61
2023/07/27 02:51:49;;;;;;;4.03;2.47;;;16.90;99.90;;;;;;5108710;27;45323;-61
2023/07/27 02:54:15;;;;;;;3.60;2.03;;;16.90;99.90;;;;;;5115767;27;47460;-62
2023/07/27 02:56:44;;;;;;;6.00;2.20;;;16.90;99.90;;;;;;5111402;27;45129;-61
2023/07/27 02:59:10;;;;;;;5.10;2.30;;;16.80;99.90;;;;;;5113410;27;45372;-62
2023/07/27 03:01:37;;;;;;;8.63;2.47;;;16.80;99.90;;;;;;5108733;27;45147;-61
2023/07/27 03:04:04;;;;;;;4.00;2.20;;;16.80;99.90;;;;;;5110619;27;47477;-61
2023/07/27 03:06:31;;;;;;;6.93;2.55;;;16.70;99.90;;;;;;5108154;27;45611;-62
2023/07/27 03:08:58;;;;;;;5.78;2.50;;;16.80;99.90;;;;;;5108791;27;45247;-61
2023/07/27 03:11:24;;;;;;;6.07;2.55;;;16.80;99.90;;;;;;5115151;27;45281;-61
2023/07/27 03:13:53;;;;;;;6.40;2.50;;;16.90;99.90;;;;;;5106335;27;46978;-61
2023/07/27 03:16:19;;;;;;;10.68;3.05;;;16.80;99.90;;;;;;5105712;27;45173;-61
2023/07/27 03:18:46;;;;;;;5.20;2.97;;;16.80;99.90;;;;;;5105239;27;45114;-61
2023/07/27 03:21:13;;;;;;;5.22;2.20;;;17.10;99.90;;;;;;5105360;27;45279;-61
2023/07/27 03:23:40;;;;;;;6.07;2.50;;;17.10;99.90;;;;;;5106434;27;47257;-61
2023/07/27 03:26:11;;;;;;;6.90;2.38;;;17.10;99.90;;;;;;5113069;27;45421;-61
2023/07/27 03:28:38;;;;;;;4.78;2.30;;;17.30;99.90;;;;;;5105650;27;45130;-61
2023/07/27 03:31:15;;;;;;;3.78;1.90;;;17.00;99.90;;;;;;5119797;27;45161;-62
2023/07/27 03:33:42;;;;;;;7.32;2.45;;;16.90;99.90;;;;;;5110723;27;46221;-61
2023/07/27 03:36:09;;;;;;;5.55;2.55;;;16.70;99.90;;;;;;5109767;27;45145;-62
2023/07/27 03:38:36;;;;;;;6.45;3.03;;;16.70;99.90;;;;;;5107274;27;45288;-61
2023/07/27 03:41:03;;;;;;;6.25;2.50;;;16.60;99.90;;;;;;5106061;27;45121;-62
2023/07/27 03:43:29;;;;;;;5.28;3.05;;;16.70;99.90;;;;;;5105202;27;47020;-61
2023/07/27 03:45:56;;;;;;;6.93;2.75;;;16.70;99.90;;;;;;5105047;27;45360;-62
2023/07/27 03:48:25;;;;;;;9.38;2.33;;;17.20;99.90;;;;;;5105355;27;45172;-61
2023/07/27 03:50:52;;;;;;;7.40;2.42;;;17.00;99.90;;;;;;5106802;27;45164;-61
2023/07/27 03:53:19;;;;;;;5.90;2.70;;;18.30;99.90;;;;;;5114277;27;46229;-62
2023/07/27 03:55:46;;;;;;;4.32;2.35;;;17.10;99.90;;;;;;5113350;27;45494;-61
2023/07/27 03:58:13;;;;;;;6.38;2.65;;;16.60;99.90;;;;;;5113242;27;45137;-61
2023/07/27 04:00:40;;;;;;;5.95;2.80;;;16.60;99.90;;;;;;5104634;27;45324;-61
2023/07/27 04:03:07;;;;;;;6.25;2.35;;;16.60;99.90;;;;;;5104578;27;48641;-62
2023/07/27 04:05:35;;;;;;;8.90;3.33;;;16.60;99.90;;;;;;5109770;27;45188;-61
2023/07/27 04:08:02;;;;;;;6.00;2.90;;;16.60;99.90;;;;;;5104998;27;45223;-62
2023/07/27 04:10:30;;;;;;;8.82;3.22;;;16.50;99.90;;;;;;5107990;27;45232;-61
2023/07/27 04:12:57;;;;;;;13.48;3.17;;;16.50;99.90;;;;;;5109267;27;45445;-62
2023/07/27 04:15:24;;;;;;;6.35;3.00;;;16.40;99.90;;;;;;5106222;27;45690;-62
2023/07/27 04:17:51;;;;;;;8.80;2.90;;;16.50;99.90;;;;;;5099677;27;45229;-61
2023/07/27 04:20:18;;;;;;;6.47;2.45;;;16.50;99.90;;;;;;5100948;27;45422;-61
2023/07/27 04:22:46;;;;;;;6.45;3.30;;;16.30;99.90;;;;;;5110442;27;46589;-61
2023/07/27 04:25:13;;;;;;;5.32;2.72;;;16.40;99.90;;;;;;5100705;27;45181;-61
2023/07/27 04:27:40;;;;;;;5.38;2.80;;;16.40;99.90;;;;;;5105300;27;45433;-61
2023/07/27 04:30:08;;;;;;;5.05;2.53;;;16.30;99.90;;;;;;5103660;27;45177;-61
2023/07/27 04:32:34;;;;;;;5.57;3.20;;;16.30;99.90;;;;;;5104474;27;48042;-61
2023/07/27 04:35:01;;;;;;;8.18;2.88;;;16.20;99.90;;;;;;5104108;27;45164;-61
2023/07/27 04:37:28;;;;;;;7.97;3.83;;;16.30;99.90;;;;;;5103750;27;45207;-61
2023/07/27 04:39:56;;;;;;;8.93;4.13;;;16.40;99.90;;;;;;5102339;27;45257;-61
2023/07/27 04:42:23;;;;;;;6.25;3.40;;;16.40;99.90;;;;;;5108373;27;46052;-61
2023/07/27 04:44:49;;;;;;;6.65;3.00;;;16.40;99.90;;;;;;5105025;27;45362;-61
2023/07/27 04:47:16;;;;;;;6.07;3.08;;;16.40;99.90;;;;;;5102020;27;45307;-61
2023/07/27 04:49:43;;;;;;;5.60;2.63;;;16.40;99.90;;;;;;5098989;27;45166;-61
2023/07/27 04:52:10;;;;;;;3.97;2.40;;;16.50;99.90;;;;;;5107334;27;46261;-61
2023/07/27 04:54:37;;;;;;;7.32;2.50;;;16.40;99.90;;;;;;5101932;27;45339;-61
2023/07/27 04:57:05;;;;;;;6.95;2.47;;;16.40;99.90;;;;;;5096597;27;45440;-62
2023/07/27 04:59:32;;;;;;;3.95;2.30;;;16.30;99.90;;;;;;5094158;27;45431;-61
2023/07/27 05:01:59;;;;;;;16.75;3.30;;;16.30;99.90;;;;;;5101742;27;46399;-62
2023/07/27 05:04:25;;;;;;;4.35;2.45;;;16.40;99.90;;;;;;5103752;27;45101;-62
2023/07/27 05:06:52;;;;;;;5.82;2.63;;;16.40;99.90;;;;;;5105950;27;45227;-61
2023/07/27 05:09:19;;;;;;;5.25;2.47;;;16.30;99.90;;;;;;5102400;27;45156;-61
2023/07/27 05:11:46;;;;;;;4.93;2.42;;;16.10;99.90;;;;;;5114399;27;45190;-62
2023/07/27 05:14:14;;;;;;;6.30;2.55;;;16.30;99.90;;;;;;5100442;27;45366;-61
2023/07/27 05:16:41;;;;;;;8.55;2.40;;;16.20;99.90;;;;;;5099772;27;45335;-61
2023/07/27 05:19:07;;;;;;;4.10;2.67;;;16.10;99.90;;;;;;5106231;27;45291;-61
2023/07/27 05:21:34;;;;;;;5.97;2.45;;;16.10;99.90;;;;;;5107611;27;47113;-61
2023/07/27 05:24:01;;;;;;;4.43;2.58;;;16.30;99.90;;;;;;5103003;27;45204;-61
2023/07/27 05:26:27;;;;;;;7.32;3.05;;;16.20;99.90;;;;;;5104194;27;45255;-62
2023/07/27 05:28:54;;;;;;;12.73;2.85;;;16.10;99.90;;;;;;5103429;27;45137;-61
2023/07/27 05:31:22;;;;;;;6.53;3.00;;;16.20;99.90;;;;;;5109270;27;47017;-62
2023/07/27 05:33:49;;;;;;;6.70;2.88;;;16.20;99.90;;;;;;5103367;27;45160;-61
2023/07/27 05:36:16;;;;;;;5.78;2.97;;;16.20;99.90;;;;;;5103247;27;45143;-62
2023/07/27 05:38:43;;;;;;;4.43;2.60;;;16.10;99.90;;;;;;5103232;27;45236;-62
2023/07/27 05:41:10;;;;;;;5.85;3.20;;;16.20;99.90;;;;;;5094130;27;45258;-61
2023/07/27 05:43:36;;;;;;;6.88;3.38;;;16.30;99.90;;;;;;5108852;27;45081;-61
2023/07/27 05:46:03;;;;;;;6.25;3.13;;;16.30;99.90;;;;;;5102779;27;45220;-61
2023/07/27 05:48:33;;;;;;;4.82;2.83;;;16.30;99.90;;;;;;5103324;27;45269;-60
2023/07/27 05:51:00;;;;;;;4.30;2.70;;;16.30;99.90;;;;;;5102076;27;48209;-61
2023/07/27 05:53:26;;;;;;;7.35;2.95;;;16.30;99.90;;;;;;5102631;27;45245;-62
2023/07/27 05:55:53;;;;;;;4.95;2.72;;;16.20;99.90;;;;;;5111381;27;45266;-61
2023/07/27 05:58:20;;;;;;;5.90;2.97;;;16.20;99.90;;;;;;5103269;27;45417;-61
2023/07/27 06:00:47;;;;;;;4.70;2.80;;;16.30;99.90;;;;;;5101502;27;47226;-60
2023/07/27 06:03:14;;;;;;;5.13;2.63;;;16.50;99.90;;;;;;5101662;27;45180;-61
2023/07/27 06:05:45;;;;;;;6.43;3.15;;;16.40;99.90;;;;;;5101472;27;45303;-61
2023/07/27 06:08:12;;;;;;;6.28;2.95;;;16.40;99.90;;;;;;5103508;27;45252;-61
2023/07/27 06:10:39;;;;;;;8.68;3.63;;;16.30;99.90;;;;;;5101584;27;46588;-61
2023/07/27 06:13:06;;;;;;;6.70;2.78;;;16.30;99.90;;;;;;5102827;27;45142;-61
2023/07/27 06:15:32;;;;;;;5.55;2.83;;;16.30;99.90;;;;;;5102508;27;45260;-61
2023/07/27 06:17:59;;;;;;;8.63;3.25;;;16.30;99.90;;;;;;5102585;27;45284;-62
2023/07/27 06:20:26;;;;;;;5.93;2.70;;;16.40;99.90;;;;;;5101331;27;46587;-61
2023/07/27 06:22:54;;;;;;;5.25;3.00;;;16.40;99.90;;;;;;5094256;27;45210;-62
2023/07/27 06:25:21;;;;;;;10.30;3.08;;;16.40;99.90;;;;;;5102807;27;45260;-61
2023/07/27 06:27:48;;;;;;;7.57;3.00;;;16.30;99.90;;;;;;5102973;27;45417;-61
2023/07/27 06:30:15;;;;;;;5.53;2.88;;;16.40;99.90;;;;;;5101563;27;47352;-61
2023/07/27 06:32:42;;;;;;;5.13;3.03;;;16.50;99.90;;;;;;5102451;27;45251;-61
2023/07/27 06:35:09;;;;;;;6.78;3.42;;;16.50;99.90;;;;;;5102306;27;45154;-62
2023/07/27 06:37:36;;;;;;;4.18;2.75;;;16.50;99.90;;;;;;5110185;27;45468;-62
2023/07/27 06:40:06;;;;;;;5.88;3.00;;;16.50;99.90;;;;;;5102830;27;45311;-61
2023/07/27 06:42:33;;;;;;;5.55;2.85;;;16.60;99.90;;;;;;5099214;27;45899;-62
2023/07/27 06:45:01;;;;;;;6.18;3.10;;;16.70;99.90;;;;;;5103193;27;45259;-62
2023/07/27 06:47:28;;;;;;;3.60;2.83;;;16.80;99.90;;;;;;5100177;27;45307;-63
2023/07/27 06:49:54;;;;;;;5.93;3.20;;;16.80;99.90;;;;;;5101975;27;45242;-61
2023/07/27 06:52:21;;;;;;;6.18;3.15;;;16.80;99.90;;;;;;5111446;27;45310;-61
2023/07/27 06:54:48;;;;;;;6.53;2.78;;;16.80;99.90;;;;;;5103995;27;45213;-61
2023/07/27 06:57:16;;;;;;;4.45;2.00;;;16.70;99.90;;;;;;5105081;27;45218;-62
2023/07/27 06:59:43;;;;;;;2.40;1.60;;;16.80;99.90;;;;;;5104492;27;47590;-61
2023/07/27 07:02:10;;;;;;;4.60;1.70;;;16.80;99.90;;;;;;5110249;27;45260;-61
2023/07/27 07:04:37;;;;;;;7.13;1.90;;;16.90;99.90;;;;;;5108252;27;45295;-62
2023/07/27 07:07:04;;;;;;;2.67;1.70;;;16.90;99.90;;;;;;5106275;27;45348;-61
2023/07/27 07:09:32;;;;;;;4.00;1.60;;;16.90;99.90;;;;;;5105312;27;47448;-61
2023/07/27 07:11:59;;;;;;;4.97;1.73;;;17.00;99.90;;;;;;5105021;27;45192;-62
2023/07/27 07:14:28;;;;;;;4.47;1.88;;;16.90;99.90;;;;;;5105708;27;45242;-62
2023/07/27 07:16:55;;;;;;;4.70;1.80;;;16.90;99.90;;;;;;5105806;27;45251;-62
2023/07/27 07:19:21;;;;;;;3.28;1.65;;;17.10;99.90;;;;;;5099534;27;46099;-62
2023/07/27 07:21:48;;;;;;;4.13;1.63;;;17.00;99.90;;;;;;5100755;27;45439;-62
2023/07/27 07:24:15;;;;;;;3.55;1.52;;;17.20;99.90;;;;;;5108673;27;45387;-62
2023/07/27 07:26:42;;;;;;;4.03;1.60;;;17.30;99.90;;;;;;5101718;27;45358;-62
2023/07/27 07:29:08;;;;;;;2.33;1.42;;;17.20;99.90;;;;;;5107402;27;46063;-62
2023/07/27 07:31:37;;;;;;;3.55;1.35;;;17.10;99.90;;;;;;5104838;27;45465;-62
2023/07/27 07:34:04;;;;;;;3.28;1.60;;;17.20;99.90;;;;;;5106858;27;45200;-62
2023/07/27 07:36:31;;;;;;;1.55;1.30;;;17.10;99.90;;;;;;5110484;27;45258;-62
2023/07/27 07:38:58;;;;;;;1.63;1.38;;;17.20;99.90;;;;;;5103937;27;45362;-62
2023/07/27 07:41:24;;;;;;;3.90;1.50;;;17.20;99.90;;;;;;5105051;27;45209;-62
2023/07/27 07:43:51;;;;;;;2.70;1.40;;;17.20;99.90;;;;;;5104892;27;45165;-62
2023/07/27 07:46:18;;;;;;;3.63;1.38;;;17.30;99.90;;;;;;5109989;27;45136;-62
2023/07/27 07:48:46;;;;;;;2.25;1.38;;;17.30;99.90;;;;;;5103556;27;45188;-62
2023/07/27 07:51:14;;;;;;;2.08;1.33;;;17.20;99.90;;;;;;5103501;27;45086;-62
2023/07/27 07:53:41;;;;;;;3.88;1.63;;;17.30;99.90;;;;;;5111713;27;45221;-62
2023/07/27 07:56:13;;;;;;;3.08;1.10;;;17.20;99.90;;;;;;5104627;27;45352;-63
2023/07/27 07:58:40;;;;;;;0.90;0.90;;;17.30;99.90;;;;;;5104498;27;47133;-62
2023/07/27 08:01:07;;;;;;;2.58;1.02;;;17.30;99.90;;;;;;5101575;27;45115;-62
2023/07/27 08:03:34;;;;;;;2.50;1.30;;;17.30;99.90;;;;;;5104666;27;45048;-62
2023/07/27 08:06:02;;;;;;;2.65;1.23;;;17.30;99.90;;;;;;5106075;27;45082;-62
2023/07/27 08:08:29;;;;;;;2.05;1.23;;;17.30;99.90;;;;;;5104004;27;45219;-62
2023/07/27 08:11:01;;;;;;;4.63;1.27;;;17.30;99.90;;;;;;5100888;27;45144;-62
2023/07/27 08:13:28;;;;;;;3.30;1.40;;;17.40;99.90;;;;;;5104275;27;45130;-61
2023/07/27 08:15:55;;;;;;;5.28;1.40;;;17.50;99.90;;;;;;5103688;27;45218;-62
2023/07/27 08:18:22;;;;;;;2.13;1.27;;;17.40;99.90;;;;;;5103358;27;47484;-62
2023/07/27 08:20:58;;;;;;;4.70;1.00;;;17.40;99.90;;;;;;5101214;27;45124;-62
2023/07/27 08:23:27;;;;;;;1.73;0.90;;;17.60;99.90;;;;;;5098328;27;45177;-62
2023/07/27 08:25:54;;;;;;;1.48;0.90;;;17.80;99.90;;;;;;5103016;27;45427;-62
2023/07/27 08:28:21;;;;;;;1.08;0.90;;;18.00;99.90;;;;;;5101080;27;45203;-61
2023/07/27 08:30:49;;;;;;;2.75;1.25;;;18.10;99.90;;;;;;5102176;27;45308;-61
2023/07/27 08:33:16;;;;;;;1.25;1.05;;;18.10;99.90;;;;;;5103776;27;45153;-61
2023/07/27 08:35:44;;;;;;;1.00;0.90;;;18.20;99.90;;;;;;5103892;27;45149;-62
2023/07/27 08:38:11;;;;;;;1.17;0.60;;;18.20;99.90;;;;;;5103749;27;47315;-62
2023/07/27 08:40:39;;;;;;;1.20;0.82;;;18.30;99.90;;;;;;5103218;27;45096;-62
2023/07/27 08:43:08;;;;;;;0.98;0.80;;;18.30;99.90;;;;;;5103344;27;45600;-62
2023/07/27 08:45:35;;;;;;;1.20;0.90;;;18.40;99.90;;;;;;5096906;27;45413;-62
2023/07/27 08:48:03;;;;;;;1.52;1.00;;;18.40;99.90;;;;;;5097182;27;45198;-62
2023/07/27 08:50:31;;;;;;;1.00;0.90;;;18.40;99.90;;;;;;5100156;27;45302;-62
2023/07/27 08:52:58;;;;;;;3.05;1.10;;;18.40;99.90;;;;;;5098526;27;45191;-62
2023/07/27 08:55:24;;;;;;;1.70;1.30;;;18.50;99.90;;;;;;5103829;27;45307;-62
2023/07/27 08:57:53;;;;;;;2.97;1.00;;;18.50;99.90;;;;;;5105843;27;46404;-62
2023/07/27 09:00:20;;;;;;;2.45;1.10;;;18.50;99.90;;;;;;5105203;27;45188;-62
2023/07/27 09:02:47;;;;;;;1.73;1.10;;;18.50;99.90;;;;;;5103616;27;45270;-63
2023/07/27 09:05:14;;;;;;;3.78;1.35;;;18.50;99.90;;;;;;5106983;27;45367;-62
2023/07/27 09:07:40;;;;;;;3.17;1.10;;;18.60;99.90;;;;;;5110537;27;45120;-62
2023/07/27 09:10:09;;;;;;;1.17;0.95;;;18.50;99.90;;;;;;5103115;27;45138;-62
2023/07/27 09:12:36;;;;;;;2.08;1.40;;;18.60;99.90;;;;;;5103477;27;45338;-62
2023/07/27 09:15:13;;;;;;;2.42;1.00;;;18.50;99.90;;;;;;5107871;27;45303;-62
2023/07/27 09:17:40;;;;;;;1.65;1.35;;;18.60;99.90;;;;;;5103500;27;47298;-62
2023/07/27 09:20:10;;;;;;;2.92;1.25;;;18.60;99.90;;;;;;5100795;27;45319;-61
2023/07/27 09:22:37;;;;;;;9.63;1.35;;;18.60;99.90;;;;;;5100169;27;45227;-62
2023/07/27 09:25:05;;;;;;;5.13;1.20;;;18.60;99.90;;;;;;5103042;27;45492;-62
2023/07/27 09:27:42;;;;;;;1.05;0.90;;;18.60;99.90;;;;;;5097978;27;46339;-61
2023/07/27 09:30:11;;;;;;;2.78;1.50;;;18.70;99.90;;;;;;5102419;27;45770;-62
2023/07/27 09:32:38;;;;;;;3.17;1.35;;;18.70;99.90;;;;;;5108965;27;45317;-63
2023/07/27 09:35:06;;;;;;;1.17;1.00;;;18.70;99.90;;;;;;5107911;27;45218;-62
2023/07/27 09:37:34;;;;;;;2.58;0.90;;;18.80;99.90;;;;;;5103074;27;46665;-62
2023/07/27 09:40:08;;;;;;;0.98;0.93;;;18.70;99.90;;;;;;5107279;27;45220;-62
2023/07/27 09:42:36;;;;;;;3.40;1.50;;;18.80;99.90;;;;;;5103208;27;45196;-63
2023/07/27 09:45:03;;;;;;;3.45;1.50;;;18.70;99.90;;;;;;5107947;27;45191;-61
2023/07/27 09:47:32;;;;;;;5.97;1.75;;;18.70;99.90;;;;;;5103179;27;45440;-62
2023/07/27 09:50:00;;;;;;;2.35;1.83;;;18.80;99.90;;;;;;5094365;27;45455;-63
2023/07/27 09:52:27;;;;;;;2.60;1.75;;;18.80;99.90;;;;;;5103189;27;45273;-62
2023/07/27 09:54:56;;;;;;;1.73;1.58;;;18.80;99.90;;;;;;5107626;27;45374;-62
2023/07/27 09:57:24;;;;;;;2.33;2.10;;;18.80;99.90;;;;;;5105646;27;45323;-62
2023/07/27 09:59:51;;;;;;;0.63;0.55;;;19.00;99.90;;;;;;5102173;27;45313;-62
2023/07/27 10:02:20;;;;;;;3.42;1.10;;;19.90;99.90;;;;;;5102398;27;45138;-62
2023/07/27 10:04:50;;;;;;;1.50;0.70;;;20.20;99.90;;;;;;5102448;27;45186;-62
2023/07/27 10:07:18;;;;;;;1.77;1.30;;;20.70;99.90;;;;;;5102998;27;46610;-62
2023/07/27 10:09:45;;;;;;;2.92;1.60;;;20.10;99.90;;;;;;5102806;27;45187;-61
2023/07/27 10:12:12;;;;;;;2.72;1.40;;;19.60;99.90;;;;;;5101839;27;45260;-61
2023/07/27 10:14:39;;;;;;;3.85;1.50;;;19.30;99.90;;;;;;5105579;27;45403;-61
2023/07/27 10:17:09;;;;;;;2.72;1.70;;;19.20;99.90;;;;;;5100950;27;47250;-61
2023/07/27 10:19:42;;;;;;;2.58;1.52;;;19.10;99.90;;;;;;5104711;27;45175;-62
2023/07/27 10:22:13;;;;;;;4.07;1.80;;;19.10;99.90;;;;;;5105077;27;45253;-62
2023/07/27 10:24:50;;;;;;;4.22;1.38;;;19.10;99.90;;;;;;5111605;27;45545;-62
2023/07/27 10:27:18;;;;;;;4.75;1.52;;;19.10;99.90;;;;;;5105707;27;46643;-62
2023/07/27 10:29:48;;;;;;;4.03;1.85;;;19.10;99.90;;;;;;5114713;27;45716;-61
2023/07/27 10:32:15;;;;;;;1.67;1.40;;;19.20;99.90;;;;;;5112057;27;45373;-62
2023/07/27 10:34:42;;;;;;;1.73;1.30;;;19.20;99.90;;;;;;5116492;27;45561;-62
2023/07/27 10:37:11;;;;;;;4.45;1.48;;;19.20;99.90;;;;;;5112624;27;46514;-62
2023/07/27 10:39:46;;;;;;;1.23;1.13;;;19.20;99.90;;;;;;5106785;27;45258;-62
2023/07/27 10:42:15;;;;;;;1.85;1.30;;;19.30;99.90;;;;;;5098850;27;45252;-62
2023/07/27 10:44:44;;;;;;;1.45;1.25;;;19.30;99.90;;;;;;5106199;27;45259;-62
2023/07/27 10:47:13;;;;;;;1.92;1.55;;;19.40;99.90;;;;;;5104283;27;47267;-62
2023/07/27 10:49:40;;;;;;;3.70;1.23;;;19.40;99.90;;;;;;5103173;27;45151;-61
2023/07/27 10:52:08;;;;;;;1.40;1.30;;;19.30;99.90;;;;;;5106676;27;45377;-62
2023/07/27 10:54:39;;;;;;;1.50;1.30;;;19.30;99.90;;;;;;5111026;27;45403;-62
2023/07/27 10:57:07;;;;;;;3.25;1.40;;;19.20;99.90;;;;;;5104371;27;45448;-62
2023/07/27 10:59:38;;;;;;;2.15;1.67;;;19.10;99.90;;;;;;5114583;27;45203;-62
2023/07/27 11:02:10;;;;;;;4.10;1.42;;;19.10;99.90;;;;;;5112032;27;45214;-62
2023/07/27 11:04:39;;;;;;;2.33;1.55;;;19.00;99.90;;;;;;5106961;27;45200;-63
2023/07/27 11:07:06;;;;;;;4.10;1.73;;;19.10;99.90;;;;;;5097364;27;47595;-61
2023/07/27 11:09:33;;;;;;;2.63;1.67;;;19.20;99.90;;;;;;5104885;27;45315;-63
2023/07/27 11:12:02;;;;;;;1.90;1.60;;;19.30;99.90;;;;;;5104361;27;45364;-62
2023/07/27 11:14:29;;;;;;;3.00;1.50;;;19.30;99.90;;;;;;5106187;27;45249;-62
2023/07/27 11:16:56;;;;;;;3.03;1.38;;;19.40;99.90;;;;;;5108844;27;46167;-62
2023/07/27 11:19:24;;;;;;;3.35;1.13;;;19.50;99.90;;;;;;5107645;27;45443;-62
2023/07/27 11:21:51;;;;;;;2.40;0.93;;;19.50;99.90;;;;;;5104901;27;45288;-62
2023/07/27 11:24:20;;;;;;;1.00;0.90;;;19.60;99.90;;;;;;5104411;27;45197;-63
2023/07/27 11:26:47;;;;;;;1.95;1.40;;;19.60;99.90;;;;;;5113290;27;47314;-62
2023/07/27 11:29:16;;;;;;;2.03;1.20;;;19.70;99.90;;;;;;5103823;27;45133;-63
2023/07/27 11:31:53;;;;;;;1.63;1.20;;;19.70;99.90;;;;;;5106757;27;45235;-62
2023/07/27 11:34:23;;;;;;;2.25;1.10;;;19.60;99.90;;;;;;5105574;27;45062;-62
2023/07/27 11:36:52;;;;;;;7.50;1.40;;;19.60;99.90;;;;;;5114508;27;48248;-62
2023/07/27 11:39:19;;;;;;;1.65;1.15;;;19.60;99.90;;;;;;5104099;27;46006;-62
2023/07/27 11:41:48;;;;;;;2.72;1.23;;;19.60;99.90;;;;;;5088884;27;45197;-62
2023/07/27 11:44:16;;;;;;;2.58;1.40;;;19.60;99.90;;;;;;5099017;27;45252;-62
2023/07/27 11:46:46;;;;;;;3.85;1.25;;;19.70;99.90;;;;;;5105186;27;45437;-62
2023/07/27 11:49:13;;;;;;;2.20;1.30;;;19.70;99.90;;;;;;5104609;27;45157;-62
2023/07/27 11:51:40;;;;;;;2.70;1.30;;;19.80;99.90;;;;;;5105553;27;45392;-61
2023/07/27 11:54:07;;;;;;;2.30;1.00;;;19.90;99.90;;;;;;5108146;27;45353;-62
2023/07/27 11:56:34;;;;;;;2.72;1.50;;;19.90;99.90;;;;;;5112640;27;46395;-63
2023/07/27 11:59:01;;;;;;;1.65;1.20;;;19.80;99.90;;;;;;5102478;27;45247;-63
2023/07/27 12:01:29;;;;;;;1.63;1.30;;;19.80;99.90;;;;;;5103286;27;45635;-62
2023/07/27 12:03:56;;;;;;;1.55;1.00;;;19.90;99.90;;;;;;5112997;27;45357;-62
2023/07/27 12:06:24;;;;;;;1.48;0.95;;;19.90;99.90;;;;;;5103433;27;47519;-63
2023/07/27 12:08:51;;;;;;;1.85;1.10;;;19.80;99.90;;;;;;5109812;27;45320;-62
2023/07/27 12:11:25;;;;;;;2.22;1.13;;;19.80;99.90;;;;;;5114288;27;45291;-61
2023/07/27 12:13:52;;;;;;;0.85;0.70;;;19.80;99.90;;;;;;5094950;27;45367;-62
2023/07/27 12:16:19;;;;;;;0.73;0.73;;;19.90;99.90;;;;;;5098214;27;46875;-62
2023/07/27 12:18:47;;;;;;;2.55;0.80;;;19.80;99.90;;;;;;5101164;27;45298;-63
2023/07/27 12:21:14;;;;;;;1.35;0.80;;;19.60;99.90;;;;;;5108497;27;45097;-62
2023/07/27 12:23:41;;;;;;;1.15;0.80;;;19.60;99.90;;;;;;5100479;27;45206;-62
2023/07/27 12:26:09;;;;;;;1.23;0.88;;;19.60;99.90;;;;;;5101874;27;46354;-63
2023/07/27 12:28:36;;;;;;;5.75;1.48;;;19.60;99.90;;;;;;5105246;27;45274;-62
2023/07/27 12:31:03;;;;;;;1.10;1.00;;;19.50;99.90;;;;;;5103526;27;45580;-62
2023/07/27 12:33:29;;;;;;;3.60;0.70;;;19.70;99.90;;;;;;5104357;27;45420;-62
2023/07/27 12:35:58;;;;;;;4.18;1.20;;;19.80;99.90;;;;;;5103810;27;46202;-62
2023/07/27 12:38:25;;;;;;;0.90;0.70;;;19.60;99.90;;;;;;5105241;27;45264;-62
2023/07/27 12:40:51;;;;;;;1.02;0.77;;;19.50;99.90;;;;;;5102650;27;45216;-62
2023/07/27 12:43:18;;;;;;;1.33;0.73;;;19.40;99.90;;;;;;5104822;27;45245;-62
2023/07/27 12:45:45;;;;;;;4.35;0.50;;;19.40;99.90;;;;;;5106922;27;45271;-62
2023/07/27 12:48:12;;;;;;;4.28;0.90;;;19.20;99.90;;;;;;5096990;27;45177;-62
2023/07/27 12:50:40;;;;;;;1.13;0.60;;;19.10;99.90;;;;;;5097041;27;45331;-62